createdAt,value
2022-09-01T00:01:42.373Z,2.00
2022-09-01T00:04:12.709Z,1.80
2022-09-01T00:06:40.921Z,1.87
2022-09-01T00:09:13.922Z,1.90
2022-09-01T00:11:43.541Z,1.70
2022-09-01T00:14:29.556Z,2.20
2022-09-01T00:17:02.084Z,2.00
2022-09-01T00:19:29.578Z,2.43
2022-09-01T00:21:57.079Z,2.10
2022-09-01T00:24:26.242Z,2.20
2022-09-01T00:26:54.248Z,1.73
2022-09-01T00:29:21.138Z,1.77
2022-09-01T00:31:47.920Z,2.00
2022-09-01T00:34:14.409Z,2.00
2022-09-01T00:36:41.001Z,2.10
2022-09-01T00:39:07.468Z,1.87
2022-09-01T00:41:38.225Z,2.07
2022-09-01T00:44:12.074Z,1.80
2022-09-01T00:46:49.884Z,2.30
2022-09-01T00:49:20.999Z,2.20
2022-09-01T00:51:55.634Z,1.97
2022-09-01T00:54:27.367Z,1.87
2022-09-01T00:56:57.807Z,1.90
2022-09-01T00:59:26.529Z,1.90
2022-09-01T01:01:54.995Z,2.03
2022-09-01T01:04:22.087Z,1.90
2022-09-01T01:06:58.817Z,2.07
2022-09-01T01:09:27.151Z,2.20
2022-09-01T01:11:54.652Z,2.23
2022-09-01T01:14:21.174Z,2.07
2022-09-01T01:16:52.002Z,1.70
2022-09-01T01:19:47.159Z,1.70
2022-09-01T01:22:40.589Z,1.70
2022-09-01T01:25:07.942Z,1.87
2022-09-01T01:27:35.792Z,2.00
2022-09-01T01:30:11.191Z,1.70
2022-09-01T01:32:43.080Z,2.00
2022-09-01T01:35:14.613Z,1.80
2022-09-01T01:37:49.283Z,1.80
2022-09-01T01:40:18.612Z,1.77
2022-09-01T01:42:47.986Z,1.73
2022-09-01T01:45:19.435Z,2.00
2022-09-01T01:47:53.357Z,1.80
2022-09-01T01:50:38.322Z,2.17
2022-09-01T01:53:10.881Z,1.90
2022-09-01T01:55:39.224Z,2.00
2022-09-01T01:58:05.694Z,2.20
2022-09-01T02:00:34.636Z,2.20
2022-09-01T02:03:01.247Z,1.93
2022-09-01T02:05:31.973Z,1.90
2022-09-01T02:08:04.841Z,1.80
2022-09-01T02:10:46.077Z,1.67
2022-09-01T02:13:17.606Z,1.43
2022-09-01T02:15:50.614Z,1.43
2022-09-01T02:18:36.187Z,1.40
2022-09-01T02:21:10.562Z,1.40
2022-09-01T02:23:40.204Z,1.60
2022-09-01T02:26:17.332Z,1.40
2022-09-01T02:28:54.268Z,1.37
2022-09-01T02:31:23.231Z,1.53
2022-09-01T02:33:49.916Z,1.57
2022-09-01T02:36:19.387Z,1.30
2022-09-01T02:38:53.158Z,1.53
2022-09-01T02:41:25.029Z,1.60
2022-09-01T02:43:51.628Z,1.47
2022-09-01T02:46:23.395Z,1.60
2022-09-01T02:48:51.486Z,1.53
2022-09-01T02:51:20.917Z,1.40
2022-09-01T02:53:52.198Z,1.50
2022-09-01T02:56:25.237Z,1.40
2022-09-01T02:58:53.033Z,1.13
2022-09-01T03:01:29.729Z,1.60
2022-09-01T03:04:02.668Z,1.40
2022-09-01T03:06:34.000Z,1.50
2022-09-01T03:09:00.982Z,1.40
2022-09-01T03:11:30.881Z,1.27
2022-09-01T03:13:58.077Z,1.20
2022-09-01T03:16:24.761Z,1.53
2022-09-01T03:18:52.158Z,1.53
2022-09-01T03:21:19.858Z,1.60
2022-09-01T03:23:47.649Z,1.43
2022-09-01T03:26:16.180Z,1.60
2022-09-01T03:28:42.658Z,1.53
2022-09-01T03:31:12.147Z,1.50
2022-09-01T03:33:38.654Z,1.60
2022-09-01T03:36:15.173Z,1.67
2022-09-01T03:38:43.737Z,1.67
2022-09-01T03:41:10.276Z,1.57
2022-09-01T03:43:36.684Z,1.60
2022-09-01T03:46:03.447Z,1.53
2022-09-01T03:48:32.112Z,1.50
2022-09-01T03:51:03.130Z,1.60
2022-09-01T03:53:35.079Z,1.60
2022-09-01T03:56:04.075Z,1.80
2022-09-01T03:58:30.492Z,1.57
2022-09-01T04:01:00.613Z,2.13
2022-09-01T04:03:31.389Z,1.70
2022-09-01T04:05:59.472Z,1.63
2022-09-01T04:08:32.420Z,1.50
2022-09-01T04:11:03.855Z,1.60
2022-09-01T04:13:41.124Z,1.87
2022-09-01T04:16:38.470Z,1.50
2022-09-01T04:19:16.215Z,1.60
2022-09-01T04:21:44.709Z,1.87
2022-09-01T04:24:13.475Z,1.87
2022-09-01T04:26:40.997Z,2.20
2022-09-01T04:29:09.101Z,2.07
2022-09-01T04:31:38.684Z,1.73
2022-09-01T04:34:11.617Z,1.73
2022-09-01T04:36:39.022Z,1.83
2022-09-01T04:39:08.815Z,1.53
2022-09-01T04:41:41.486Z,2.03
2022-09-01T04:44:09.120Z,2.30
2022-09-01T04:46:42.199Z,1.83
2022-09-01T04:49:13.049Z,1.93
2022-09-01T04:51:44.732Z,2.23
2022-09-01T04:54:14.140Z,2.10
2022-09-01T04:56:47.891Z,2.83
2022-09-01T04:59:14.821Z,2.63
2022-09-01T05:01:45.232Z,2.50
2022-09-01T05:04:24.464Z,2.50
2022-09-01T05:06:57.842Z,2.40
2022-09-01T05:09:27.098Z,2.30
2022-09-01T05:11:53.682Z,2.50
2022-09-01T05:14:21.531Z,2.00
2022-09-01T05:16:49.150Z,2.37
2022-09-01T05:19:17.455Z,2.40
2022-09-01T05:21:46.220Z,2.30
2022-09-01T05:24:19.775Z,2.20
2022-09-01T05:26:49.683Z,2.20
2022-09-01T05:29:17.757Z,2.23
2022-09-01T05:31:47.025Z,2.20
2022-09-01T05:34:19.956Z,2.10
2022-09-01T05:36:50.464Z,2.23
2022-09-01T05:39:16.880Z,2.50
2022-09-01T05:41:43.554Z,2.10
2022-09-01T05:44:11.187Z,2.03
2022-09-01T05:46:39.370Z,1.80
2022-09-01T05:49:09.253Z,1.73
2022-09-01T05:51:45.635Z,1.80
2022-09-01T05:54:14.568Z,1.80
2022-09-01T05:56:44.282Z,1.90
2022-09-01T05:59:27.035Z,1.90
2022-09-01T06:01:55.417Z,1.87
2022-09-01T06:04:24.674Z,1.60
2022-09-01T06:07:08.463Z,1.50
2022-09-01T06:09:41.416Z,1.60
2022-09-01T06:12:17.904Z,1.90
2022-09-01T06:14:48.819Z,1.73
2022-09-01T06:17:16.894Z,1.67
2022-09-01T06:19:44.025Z,1.90
2022-09-01T06:22:11.468Z,1.40
2022-09-01T06:24:39.969Z,1.70
2022-09-01T06:27:09.918Z,1.50
2022-09-01T06:29:39.888Z,1.50
2022-09-01T06:32:12.461Z,1.60
2022-09-01T06:34:42.600Z,1.70
2022-09-01T06:37:10.076Z,1.60
2022-09-01T06:39:36.936Z,1.40
2022-09-01T06:42:06.040Z,1.70
2022-09-01T06:44:33.304Z,1.60
2022-09-01T06:47:00.066Z,1.60
2022-09-01T06:49:32.422Z,1.40
2022-09-01T06:51:59.791Z,1.73
2022-09-01T06:54:26.195Z,1.37
2022-09-01T06:56:53.632Z,1.50
2022-09-01T06:59:21.782Z,1.53
2022-09-01T07:02:01.459Z,1.17
2022-09-01T07:04:30.270Z,1.30
2022-09-01T07:07:53.102Z,1.50
2022-09-01T07:09:49.718Z,1.33
2022-09-01T07:12:27.578Z,1.13
2022-09-01T07:17:42.658Z,1.30
2022-09-01T07:20:26.770Z,1.23
2022-09-01T07:23:03.964Z,1.40
2022-09-01T07:25:48.365Z,1.20
2022-09-01T07:28:23.378Z,1.10
2022-09-01T07:30:53.242Z,1.40
2022-09-01T07:36:26.836Z,1.60
2022-09-01T07:44:28.646Z,1.42
2022-09-01T07:52:28.987Z,1.20
2022-09-01T07:54:55.958Z,1.40
2022-09-01T07:57:22.934Z,1.35
2022-09-01T07:59:53.925Z,1.27
2022-09-01T08:02:20.405Z,1.42
2022-09-01T08:04:46.865Z,1.52
2022-09-01T08:07:15.889Z,1.50
2022-09-01T08:09:44.229Z,1.30
2022-09-01T08:12:10.966Z,1.65
2022-09-01T08:14:37.505Z,1.25
2022-09-01T08:19:53.410Z,1.73
2022-09-01T08:22:24.309Z,1.20
2022-09-01T08:24:52.757Z,1.60
2022-09-01T08:27:19.974Z,1.30
2022-09-01T08:29:46.908Z,1.40
2022-09-01T08:32:13.300Z,1.33
2022-09-01T08:34:39.988Z,1.25
2022-09-01T08:37:06.791Z,1.50
2022-09-01T08:39:33.203Z,1.50
2022-09-01T08:42:20.004Z,1.60
2022-09-01T08:45:10.730Z,1.35
2022-09-01T08:47:56.044Z,1.40
2022-09-01T08:50:24.933Z,1.55
2022-09-01T08:53:28.486Z,1.50
2022-09-01T08:55:56.878Z,1.52
2022-09-01T08:58:23.535Z,1.65
2022-09-01T09:01:15.730Z,1.23
2022-09-01T09:04:03.010Z,1.40
2022-09-01T09:06:54.852Z,1.02
2022-09-01T09:09:34.214Z,1.35
2022-09-01T09:12:16.520Z,1.10
2022-09-01T09:14:50.233Z,1.15
2022-09-01T09:17:21.458Z,1.10
2022-09-01T09:19:47.987Z,1.30
2022-09-01T09:22:18.020Z,1.10
2022-09-01T09:24:52.370Z,1.40
2022-09-01T09:27:23.607Z,1.30
2022-09-01T09:30:12.824Z,1.23
2022-09-01T09:33:15.973Z,1.30
2022-09-01T09:35:51.740Z,1.30
2022-09-01T09:38:29.048Z,1.50
2022-09-01T09:41:16.045Z,1.30
2022-09-01T09:43:59.376Z,1.15
2022-09-01T09:46:26.470Z,1.40
2022-09-01T09:49:34.510Z,1.50
2022-09-01T09:52:03.131Z,1.30
2022-09-01T09:54:34.498Z,1.40
2022-09-01T09:57:08.985Z,1.30
2022-09-01T09:59:57.108Z,1.38
2022-09-01T10:02:21.767Z,1.60
2022-09-01T10:04:55.704Z,1.33
2022-09-01T10:07:34.950Z,1.30
2022-09-01T10:10:57.871Z,1.38
2022-09-01T10:13:26.945Z,1.42
2022-09-01T10:15:59.922Z,1.63
2022-09-01T10:18:35.359Z,1.10
2022-09-01T10:21:08.680Z,1.40
2022-09-01T10:23:37.691Z,1.33
2022-09-01T10:26:12.278Z,1.50
2022-09-01T10:28:49.615Z,1.70
2022-09-01T10:31:17.936Z,1.30
2022-09-01T10:33:45.073Z,1.40
2022-09-01T10:36:14.124Z,1.40
2022-09-01T10:38:50.554Z,1.30
2022-09-01T10:42:07.032Z,1.55
2022-09-01T10:44:55.140Z,1.40
2022-09-01T10:47:33.696Z,1.63
2022-09-01T10:50:22.486Z,1.63
2022-09-01T10:52:50.516Z,1.40
2022-09-01T10:55:41.492Z,1.60
2022-09-01T11:01:49.603Z,1.52
2022-09-01T11:04:28.822Z,1.35
2022-09-01T11:07:12.637Z,1.48
2022-09-01T11:09:45.292Z,1.30
2022-09-01T11:12:47.301Z,1.58
2022-09-01T11:15:13.680Z,1.42
2022-09-01T11:17:50.209Z,1.55
2022-09-01T11:20:25.062Z,1.65
2022-09-01T11:22:57.496Z,1.45
2022-09-01T11:25:40.773Z,1.58
2022-09-01T11:28:35.021Z,1.77
2022-09-01T11:31:08.604Z,1.83
2022-09-01T11:33:44.193Z,1.70
2022-09-01T11:36:18.620Z,1.75
2022-09-01T11:38:55.154Z,1.60
2022-09-01T11:41:26.291Z,1.70
2022-09-01T11:43:57.817Z,1.70
2022-09-01T11:46:30.716Z,1.83
2022-09-01T11:49:00.235Z,1.92
2022-09-01T11:51:26.899Z,1.90
2022-09-01T11:54:00.688Z,1.80
2022-09-01T11:56:28.587Z,1.55
2022-09-01T11:58:55.128Z,1.75
2022-09-01T12:01:30.542Z,1.77
2022-09-01T12:03:58.823Z,1.80
2022-09-01T12:06:29.529Z,1.70
2022-09-01T12:09:03.802Z,1.60
2022-09-01T12:11:34.084Z,1.83
2022-09-01T12:14:04.727Z,2.03
2022-09-01T12:16:39.376Z,1.80
2022-09-01T12:19:06.508Z,1.60
2022-09-01T12:21:38.235Z,1.77
2022-09-01T12:24:15.102Z,1.75
2022-09-01T12:26:42.345Z,1.60
2022-09-01T12:29:16.434Z,1.58
2022-09-01T12:31:47.381Z,1.90
2022-09-01T12:34:32.643Z,2.03
2022-09-01T12:37:14.361Z,1.80
2022-09-01T12:39:50.641Z,2.03
2022-09-01T12:42:20.015Z,1.50
2022-09-01T12:44:53.833Z,1.98
2022-09-01T12:47:36.038Z,2.00
2022-09-01T12:50:10.707Z,2.10
2022-09-01T12:52:46.106Z,2.15
2022-09-01T12:58:08.065Z,1.92
2022-09-01T13:00:36.853Z,1.80
2022-09-01T13:03:03.959Z,1.88
2022-09-01T13:05:41.719Z,1.90
2022-09-01T13:08:11.655Z,2.05
2022-09-01T13:10:47.796Z,1.92
2022-09-01T13:13:15.722Z,1.85
2022-09-01T13:15:48.181Z,2.00
2022-09-01T13:18:15.719Z,1.80
2022-09-01T13:20:42.290Z,1.58
2022-09-01T13:23:09.927Z,2.03
2022-09-01T13:25:36.349Z,2.42
2022-09-01T13:28:03.727Z,2.10
2022-09-01T13:30:31.216Z,1.83
2022-09-01T13:35:44.345Z,2.40
2022-09-01T13:38:11.226Z,1.88
2022-09-01T13:40:37.730Z,2.15
2022-09-01T13:43:04.697Z,2.00
2022-09-01T13:45:32.020Z,1.85
2022-09-01T13:53:33.719Z,2.00
2022-09-01T13:56:00.414Z,2.13
2022-09-01T13:58:26.898Z,2.28
2022-09-01T14:00:53.336Z,2.20
2022-09-01T14:03:23.488Z,2.22
2022-09-01T14:05:50.919Z,2.00
2022-09-01T14:08:20.970Z,2.00
2022-09-01T14:10:51.129Z,1.92
2022-09-01T14:13:19.934Z,2.35
2022-09-01T14:15:48.417Z,2.50
2022-09-01T14:18:16.265Z,2.00
2022-09-01T14:20:45.915Z,2.15
2022-09-01T14:23:13.820Z,2.10
2022-09-01T14:25:49.268Z,2.25
2022-09-01T14:28:20.679Z,1.70
2022-09-01T14:30:49.297Z,2.00
2022-09-01T14:33:16.658Z,2.17
2022-09-01T14:35:47.636Z,2.30
2022-09-01T14:38:14.901Z,2.42
2022-09-01T14:40:43.273Z,2.28
2022-09-01T14:43:14.095Z,2.20
2022-09-01T14:45:41.329Z,2.08
2022-09-01T14:48:09.027Z,1.90
2022-09-01T14:50:41.231Z,2.00
2022-09-01T14:53:08.122Z,2.33
2022-09-01T14:55:34.533Z,1.88
2022-09-01T14:58:01.000Z,2.05
2022-09-01T15:00:27.958Z,1.80
2022-09-01T15:02:55.832Z,1.90
2022-09-01T15:05:23.076Z,1.92
2022-09-01T15:07:50.499Z,2.00
2022-09-01T15:10:25.370Z,1.80
2022-09-01T15:12:54.595Z,2.00
2022-09-01T15:15:21.190Z,2.08
2022-09-01T15:17:47.571Z,1.50
2022-09-01T15:20:32.856Z,1.80
2022-09-01T15:22:59.308Z,1.98
2022-09-01T15:25:25.757Z,2.00
2022-09-01T15:27:52.519Z,1.70
2022-09-01T15:30:19.642Z,1.60
2022-09-01T15:32:49.140Z,1.60
2022-09-01T15:35:16.739Z,1.73
2022-09-01T15:37:45.542Z,1.73
2022-09-01T15:40:14.901Z,1.80
2022-09-01T15:42:42.094Z,1.85
2022-09-01T15:45:12.334Z,1.70
2022-09-01T15:47:42.338Z,1.67
2022-09-01T15:50:18.342Z,1.70
2022-09-01T15:52:49.903Z,2.40
2022-09-01T15:55:26.768Z,1.73
2022-09-01T15:57:54.964Z,1.75
2022-09-01T16:00:24.739Z,1.85
2022-09-01T16:02:51.906Z,1.98
2022-09-01T16:05:18.355Z,1.55
2022-09-01T16:07:45.193Z,2.00
2022-09-01T16:10:12.821Z,1.67
2022-09-01T16:12:43.284Z,1.48
2022-09-01T16:15:16.550Z,1.70
2022-09-01T16:18:15.071Z,2.00
2022-09-01T16:21:09.834Z,1.50
2022-09-01T16:23:48.752Z,1.67
2022-09-01T16:26:17.972Z,1.83
2022-09-01T16:28:50.707Z,1.73
2022-09-01T16:31:24.741Z,1.85
2022-09-01T16:33:56.284Z,1.65
2022-09-01T16:36:45.153Z,2.72
2022-09-01T16:39:30.894Z,1.65
2022-09-01T16:42:14.695Z,1.88
2022-09-01T16:45:01.905Z,1.80
2022-09-01T16:47:54.302Z,2.00
2022-09-01T16:50:45.229Z,1.80
2022-09-01T16:53:33.517Z,1.70
2022-09-01T16:56:13.282Z,1.52
2022-09-01T16:58:52.163Z,2.08
2022-09-01T17:01:41.140Z,1.70
2022-09-01T17:04:29.815Z,1.70
2022-09-01T17:07:30.556Z,1.77
2022-09-01T17:10:05.698Z,1.50
2022-09-01T17:12:44.374Z,1.48
2022-09-01T17:15:26.378Z,1.50
2022-09-01T17:18:23.726Z,1.65
2022-09-01T17:21:02.254Z,1.67
2022-09-01T17:23:35.480Z,1.50
2022-09-01T17:26:07.221Z,2.13
2022-09-01T17:28:43.724Z,1.50
2022-09-01T17:31:14.384Z,1.42
2022-09-01T17:34:18.619Z,1.90
2022-09-01T17:37:09.713Z,1.60
2022-09-01T17:39:39.132Z,1.90
2022-09-01T17:42:21.576Z,1.80
2022-09-01T17:44:55.699Z,1.80
2022-09-01T17:48:01.389Z,1.80
2022-09-01T17:53:29.787Z,1.83
2022-09-01T17:56:41.764Z,1.73
2022-09-01T17:59:23.189Z,1.65
2022-09-01T18:02:06.234Z,1.50
2022-09-01T18:05:06.837Z,1.70
2022-09-01T18:07:45.360Z,1.75
2022-09-01T18:10:14.949Z,4.18
2022-09-01T18:12:44.051Z,4.32
2022-09-01T18:15:12.261Z,12.32
2022-09-01T18:17:49.078Z,5.78
2022-09-01T18:20:26.237Z,4.18
2022-09-01T18:23:10.213Z,3.72
2022-09-01T18:25:48.287Z,3.10
2022-09-01T18:28:15.552Z,2.80
2022-09-01T18:31:26.475Z,2.85
2022-09-01T18:34:30.334Z,2.92
2022-09-01T18:37:15.392Z,3.30
2022-09-01T18:39:48.237Z,3.00
2022-09-01T18:42:32.999Z,2.83
2022-09-01T18:45:27.153Z,2.38
2022-09-01T18:48:00.276Z,2.47
2022-09-01T18:50:30.302Z,2.22
2022-09-01T18:52:59.783Z,2.55
2022-09-01T18:55:50.417Z,2.15
2022-09-01T18:58:47.594Z,1.90
2022-09-01T19:01:21.794Z,2.38
2022-09-01T19:04:09.485Z,2.17
2022-09-01T19:06:44.774Z,2.60
2022-09-01T19:09:32.197Z,2.00
2022-09-01T19:12:35.915Z,2.25
2022-09-01T19:15:25.286Z,2.45
2022-09-01T19:18:19.930Z,2.70
2022-09-01T19:21:08.893Z,2.10
2022-09-01T19:23:50.864Z,2.08
2022-09-01T19:26:23.410Z,2.33
2022-09-01T19:29:05.411Z,2.78
2022-09-01T19:31:36.440Z,3.20
2022-09-01T19:34:10.533Z,2.47
2022-09-01T19:36:47.099Z,2.33
2022-09-01T19:39:18.233Z,2.30
2022-09-01T19:41:54.247Z,2.75
2022-09-01T19:44:26.577Z,3.13
2022-09-01T19:47:01.318Z,2.40
2022-09-01T19:49:40.505Z,2.58
2022-09-01T19:52:39.330Z,2.53
2022-09-01T19:55:18.880Z,2.90
2022-09-01T19:58:00.665Z,2.37
2022-09-01T20:00:53.414Z,2.30
2022-09-01T20:03:34.869Z,2.47
2022-09-01T20:06:18.986Z,2.10
2022-09-01T20:08:53.160Z,2.28
2022-09-01T20:11:40.899Z,2.50
2022-09-01T20:14:17.760Z,2.10
2022-09-01T20:16:50.754Z,2.03
2022-09-01T20:19:39.343Z,1.77
2022-09-01T20:22:08.779Z,2.00
2022-09-01T20:24:38.534Z,1.70
2022-09-01T20:27:18.410Z,1.70
2022-09-01T20:29:58.171Z,1.70
2022-09-01T20:32:51.594Z,1.70
2022-09-01T20:35:24.675Z,1.30
2022-09-01T20:38:36.698Z,1.92
2022-09-01T20:41:18.122Z,1.52
2022-09-01T20:43:48.964Z,1.37
2022-09-01T20:46:20.407Z,1.93
2022-09-01T20:48:47.926Z,1.60
2022-09-01T20:51:32.836Z,1.53
2022-09-01T20:54:20.952Z,1.60
2022-09-01T20:57:04.012Z,1.67
2022-09-01T20:59:43.129Z,1.20
2022-09-01T21:02:33.558Z,1.50
2022-09-01T21:05:28.672Z,1.48
2022-09-01T21:08:01.353Z,1.50
2022-09-01T21:10:52.166Z,1.40
2022-09-01T21:13:24.805Z,1.40
2022-09-01T21:16:09.442Z,1.20
2022-09-01T21:18:54.740Z,1.80
2022-09-01T21:21:47.444Z,1.35
2022-09-01T21:24:13.849Z,1.40
2022-09-01T21:26:41.023Z,1.40
2022-09-01T21:29:35.182Z,1.33
2022-09-01T21:32:01.796Z,1.40
2022-09-01T21:34:28.235Z,1.50
2022-09-01T21:36:55.524Z,1.20
2022-09-01T21:39:22.093Z,1.40
2022-09-01T21:41:48.846Z,1.53
2022-09-01T21:44:15.673Z,1.50
2022-09-01T21:46:42.241Z,1.40
2022-09-01T21:49:08.678Z,1.60
2022-09-01T21:51:35.245Z,1.20
2022-09-01T21:54:01.672Z,1.40
2022-09-01T21:56:28.067Z,1.37
2022-09-01T21:58:55.439Z,1.30
2022-09-01T22:01:21.936Z,1.40
2022-09-01T22:03:48.496Z,1.60
2022-09-01T22:06:14.882Z,1.10
2022-09-01T22:08:41.798Z,1.37
2022-09-01T22:11:10.039Z,1.40
2022-09-01T22:13:36.860Z,1.50
2022-09-01T22:16:03.807Z,1.33
2022-09-01T22:18:30.421Z,1.40
2022-09-01T22:21:05.585Z,1.20
2022-09-01T22:23:32.148Z,1.60
2022-09-01T22:25:58.780Z,1.60
2022-09-01T22:28:25.319Z,1.23
2022-09-01T22:30:51.995Z,1.50
2022-09-01T22:33:20.804Z,1.20
2022-09-01T22:35:50.108Z,1.75
2022-09-01T22:38:17.742Z,1.17
2022-09-01T22:40:46.479Z,1.20
2022-09-01T22:43:17.634Z,1.20
2022-09-01T22:45:46.448Z,1.47
2022-09-01T22:48:14.265Z,1.27
2022-09-01T22:50:42.082Z,1.20
2022-09-01T22:53:09.329Z,1.30
2022-09-01T22:55:38.057Z,2.93
2022-09-01T22:58:05.971Z,1.47
2022-09-01T23:00:33.272Z,1.20
2022-09-01T23:03:01.255Z,1.40
2022-09-01T23:05:29.051Z,1.70
2022-09-01T23:07:57.036Z,1.43
2022-09-01T23:10:23.542Z,1.23
2022-09-01T23:12:49.962Z,1.40
2022-09-01T23:15:16.757Z,1.20
2022-09-01T23:17:43.236Z,1.63
2022-09-01T23:20:12.963Z,1.37
2022-09-01T23:22:44.548Z,1.10
2022-09-01T23:25:13.688Z,1.40
2022-09-01T23:27:40.890Z,1.50
2022-09-01T23:30:10.026Z,1.50
2022-09-01T23:32:37.084Z,1.20
2022-09-01T23:35:04.649Z,1.40
2022-09-01T23:37:31.354Z,1.08
2022-09-01T23:39:58.408Z,1.60
2022-09-01T23:42:24.893Z,1.20
2022-09-01T23:44:51.513Z,1.60
2022-09-01T23:47:17.944Z,1.27
2022-09-01T23:49:44.340Z,1.57
2022-09-01T23:52:10.900Z,1.30
2022-09-01T23:54:37.550Z,1.53
2022-09-01T23:57:03.998Z,1.13
2022-09-01T23:59:30.436Z,1.10
